Time;durP1;ratioP1;P1;durP2;ratioP2;P2;SDS_P1;SDS_P2;PMS_P1;PMS_P2;Temp;Humidity;BMP_temperature;BMP_pressure;BME280_temperature;BME280_humidity;BME280_pressure;Samples;Min_cycle;Max_cycle;Signal;HPM_P1;HPM_P2
2022/01/18 00:01:15;;;;;;;;;;;;;;;3.04;59.34;100782.87;4438880;32;19984;-85
2022/01/18 00:03:40;;;;;;;;;;;;;;;3.14;59.35;100757.31;4438402;32;20266;-84
2022/01/18 00:06:05;;;;;;;;;;;;;;;3.14;59.35;100750.44;4437850;32;20009;-84
2022/01/18 00:08:30;;;;;;;;;;;;;;;3.13;59.35;100756.44;4437793;32;19992;-83
2022/01/18 00:10:56;;;;;;;;;;;;;;;2.99;59.34;100756.22;4437813;32;19985;-83
2022/01/18 00:13:37;;;;;;;;;;;;;;;2.85;59.33;100756.88;4452301;32;19996;-83
2022/01/18 00:18:34;;;;;;;;;;;;;;;2.73;59.33;100760.97;4438305;32;19981;-84
2022/01/18 00:21:15;;;;;;;;;;;;;;;2.83;59.34;100776.53;4439522;32;20000;-84
2022/01/18 00:23:41;;;;;;;;;;;;;;;2.82;59.34;100772.22;4441889;32;19989;-84
2022/01/18 00:26:08;;;;;;;;;;;;;;;2.74;59.33;100785.84;4454173;32;20003;-85
2022/01/18 00:28:34;;;;;;;;;;;;;;;2.80;59.33;100785.06;4454321;32;19965;-85
2022/01/18 00:33:50;;;;;;;;;;;;;;;3.01;59.34;100781.97;4440105;32;19997;-84
2022/01/18 00:38:59;;;;;;;;;;;;;;;2.91;59.34;100800.69;4454497;32;19987;-87
2022/01/18 00:41:25;;;;;;;;;;;;;;;2.83;59.33;100825.38;4441039;32;20021;-85
2022/01/18 00:43:50;;;;;;;;;;;;;;;2.76;59.33;100811.56;4440565;32;20032;-85
2022/01/18 00:46:15;;;;;;;;;;;;;;;2.79;59.33;100809.06;4440338;32;20425;-86
2022/01/18 00:48:41;;;;;;;;;;;;;;;2.82;59.34;100805.66;4454391;32;19980;-85
2022/01/18 00:51:09;;;;;;;;;;;;;;;2.92;59.34;100804.97;4427469;32;20005;-84
2022/01/18 00:53:36;;;;;;;;;;;;;;;2.61;59.32;100807.06;4427617;32;19989;-85
2022/01/18 00:58:36;;;;;;;;;;;;;;;2.73;59.33;100804.69;4441107;32;20017;-85
2022/01/18 01:01:01;;;;;;;;;;;;;;;2.54;59.32;100806.91;4454360;32;19997;-85
2022/01/18 01:03:26;;;;;;;;;;;;;;;2.72;59.34;100818.38;4454109;32;19999;-85
2022/01/18 01:05:51;;;;;;;;;;;;;;;2.62;59.32;100825.91;4426891;32;20545;-85
2022/01/18 01:08:16;;;;;;;;;;;;;;;2.50;59.31;100825.69;4453707;32;20731;-85
2022/01/18 01:10:42;;;;;;;;;;;;;;;2.40;59.31;100829.81;4453928;32;20411;-85
2022/01/18 01:13:07;;;;;;;;;;;;;;;2.51;59.32;100829.97;4439991;32;20000;-85
2022/01/18 01:15:38;;;;;;;;;;;;;;;2.45;59.31;100835.88;4454156;32;19985;-84
2022/01/18 01:18:20;;;;;;;;;;;;;;;2.60;59.32;100845.56;4439968;32;19993;-84
2022/01/18 01:32:13;;;;;;;;;;;;;;;2.64;59.33;100863.66;4453330;32;19996;-85
2022/01/18 01:45:04;;;;;;;;;;;;;;;2.28;59.31;100856.12;4440877;32;20354;-89
2022/01/18 01:47:36;;;;;;;;;;;;;;;2.09;59.29;100856.59;4440042;32;20033;-88
2022/01/18 01:50:03;;;;;;;;;;;;;;;2.16;59.30;100858.47;4454325;32;20007;-88
2022/01/18 01:52:28;;;;;;;;;;;;;;;2.20;59.29;100860.25;4440403;32;19997;-89
2022/01/18 01:54:54;;;;;;;;;;;;;;;2.18;59.30;100855.94;4439900;32;20636;-87
2022/01/18 01:57:19;;;;;;;;;;;;;;;2.17;59.30;100860.19;4427233;32;19985;-89
2022/01/18 01:59:44;;;;;;;;;;;;;;;2.24;59.30;100856.03;4439782;32;20007;-90
2022/01/18 02:02:09;;;;;;;;;;;;;;;2.31;59.31;100855.31;4427178;32;19985;-89
2022/01/18 02:04:34;;;;;;;;;;;;;;;2.35;59.30;100860.53;4439913;32;20457;-89
2022/01/18 02:07:00;;;;;;;;;;;;;;;2.37;59.31;100874.31;4440243;32;20292;-88
2022/01/18 02:09:25;;;;;;;;;;;;;;;2.46;59.31;100868.47;4427685;32;20012;-89
2022/01/18 02:11:51;;;;;;;;;;;;;;;2.44;59.32;100877.84;4427784;32;20479;-90
2022/01/18 02:14:20;;;;;;;;;;;;;;;2.55;59.31;100878.91;4428002;32;20294;-87
2022/01/18 02:22:15;;;;;;;;;;;;;;;2.30;59.30;100880.13;4418672;32;19985;-91
2022/01/18 02:24:40;;;;;;;;;;;;;;;2.49;59.31;100888.19;4427783;32;19989;-90
2022/01/18 02:27:05;;;;;;;;;;;;;;;2.29;59.31;100890.38;4427256;32;21230;-89
2022/01/18 02:29:31;;;;;;;;;;;;;;;2.41;59.31;100896.62;4454164;32;20318;-87
2022/01/18 02:31:56;;;;;;;;;;;;;;;2.23;59.30;100885.13;4426512;32;19993;-88
2022/01/18 02:34:21;;;;;;;;;;;;;;;2.25;59.30;100878.31;4439772;32;20046;-89
2022/01/18 02:36:47;;;;;;;;;;;;;;;2.39;59.31;100887.19;4439686;32;19969;-88
2022/01/18 02:39:12;;;;;;;;;;;;;;;2.31;59.30;100886.12;4439517;32;19993;-88
2022/01/18 02:41:37;;;;;;;;;;;;;;;2.43;59.32;100883.81;4439515;32;19997;-89
2022/01/18 02:44:04;;;;;;;;;;;;;;;2.32;59.31;100890.44;4439069;32;19989;-89
2022/01/18 02:46:29;;;;;;;;;;;;;;;2.29;59.31;100886.09;4453728;32;20011;-87
2022/01/18 02:48:58;;;;;;;;;;;;;;;2.31;59.31;100893.84;4439459;32;20380;-88
2022/01/18 02:51:24;;;;;;;;;;;;;;;2.29;59.31;100895.53;4426666;32;20645;-88
2022/01/18 02:54:02;;;;;;;;;;;;;;;2.28;59.30;100893.78;4439504;32;19992;-89
2022/01/18 02:56:29;;;;;;;;;;;;;;;2.31;59.30;100901.56;4440189;32;19988;-89
2022/01/18 02:59:11;;;;;;;;;;;;;;;2.33;59.31;100902.44;4439891;32;19995;-88
2022/01/18 03:04:21;;;;;;;;;;;;;;;2.40;59.31;100909.47;4441733;32;20003;-88
2022/01/18 03:06:46;;;;;;;;;;;;;;;2.42;59.30;100918.06;4439666;32;19997;-89
2022/01/18 03:09:11;;;;;;;;;;;;;;;2.38;59.31;100923.97;4439335;32;20261;-89
2022/01/18 03:11:36;;;;;;;;;;;;;;;2.38;59.31;100934.25;4439737;32;20001;-88
2022/01/18 03:14:02;;;;;;;;;;;;;;;2.34;59.30;100935.88;4439622;32;20401;-89
2022/01/18 03:16:27;;;;;;;;;;;;;;;2.32;59.31;100944.38;4439564;32;20365;-88
2022/01/18 03:18:52;;;;;;;;;;;;;;;2.46;59.31;100940.41;4426682;32;20011;-88
2022/01/18 03:21:17;;;;;;;;;;;;;;;2.46;59.31;100951.56;4439818;32;19993;-88
2022/01/18 03:23:50;;;;;;;;;;;;;;;2.39;59.31;100956.56;4426810;32;20016;-89
2022/01/18 03:26:16;;;;;;;;;;;;;;;2.49;59.31;100958.47;4439456;32;20316;-89
2022/01/18 03:28:41;;;;;;;;;;;;;;;2.59;59.32;100964.62;4439477;32;20040;-89
2022/01/18 03:31:07;;;;;;;;;;;;;;;2.44;59.31;100968.66;4453796;32;20004;-89
2022/01/18 03:33:32;;;;;;;;;;;;;;;2.35;59.30;100978.72;4426729;32;20015;-89
2022/01/18 03:35:57;;;;;;;;;;;;;;;2.38;59.31;100972.81;4426680;32;20001;-88
2022/01/18 03:38:29;;;;;;;;;;;;;;;2.22;59.30;100992.16;4426895;32;19992;-89
2022/01/18 03:40:54;;;;;;;;;;;;;;;2.39;59.31;100977.97;4440818;32;19969;-89
2022/01/18 03:43:20;;;;;;;;;;;;;;;2.19;59.30;100992.09;4439413;32;20322;-89
2022/01/18 03:45:45;;;;;;;;;;;;;;;2.30;59.31;101002.59;4439605;32;20317;-89
2022/01/18 03:48:14;;;;;;;;;;;;;;;2.47;59.31;101003.81;4426835;32;19981;-90
2022/01/18 03:50:39;;;;;;;;;;;;;;;2.53;59.32;101006.50;4427162;32;20005;-89
2022/01/18 03:53:05;;;;;;;;;;;;;;;2.55;59.32;100994.56;4426650;32;20374;-91
2022/01/18 03:55:30;;;;;;;;;;;;;;;2.39;59.30;101001.09;4426202;32;20016;-90
2022/01/18 03:57:55;;;;;;;;;;;;;;;2.62;59.32;100999.00;4439735;32;20028;-89
2022/01/18 04:00:22;;;;;;;;;;;;;;;2.69;59.32;101007.69;4426382;32;20003;-90
2022/01/18 04:02:47;;;;;;;;;;;;;;;2.73;59.33;101010.34;4426479;32;19996;-89
2022/01/18 04:05:12;;;;;;;;;;;;;;;2.55;59.32;101014.25;4426794;32;20015;-90
2022/01/18 04:07:38;;;;;;;;;;;;;;;2.51;59.32;101013.31;4439904;32;19978;-89
2022/01/18 04:10:04;;;;;;;;;;;;;;;2.52;59.31;101022.75;4426766;32;19985;-89
2022/01/18 04:12:29;;;;;;;;;;;;;;;2.56;59.32;101021.13;4439530;32;20033;-88
2022/01/18 04:14:54;;;;;;;;;;;;;;;2.40;59.31;101028.53;4438556;32;20014;-89
2022/01/18 04:28:30;;;;;;;;;;;;;;;2.15;59.30;101039.97;4452556;32;20023;-86
2022/01/18 04:30:55;;;;;;;;;;;;;;;2.22;59.30;101042.66;4452589;32;19988;-86
2022/01/18 04:33:20;;;;;;;;;;;;;;;2.20;59.30;101036.63;4452396;32;19997;-86
2022/01/18 04:35:46;;;;;;;;;;;;;;;2.29;59.31;101047.09;4437788;32;24997;-87
2022/01/18 04:38:11;;;;;;;;;;;;;;;2.23;59.30;101041.81;4425435;32;19993;-86
2022/01/18 04:40:40;;;;;;;;;;;;;;;2.10;59.29;101048.38;4438149;32;20020;-86
2022/01/18 04:43:39;;;;;;;;;;;;;;;2.01;59.29;101051.59;4437975;32;19997;-87
2022/01/18 04:48:48;;;;;;;;;;;;;;;1.73;59.27;101064.63;4440140;32;19991;-87
2022/01/18 04:51:13;;;;;;;;;;;;;;;1.80;59.28;101074.19;4437907;32;19981;-87
2022/01/18 04:53:40;;;;;;;;;;;;;;;1.91;59.28;101074.47;4437588;32;19996;-87
2022/01/18 04:56:09;;;;;;;;;;;;;;;2.00;59.29;101078.13;4437978;32;20089;-86
2022/01/18 04:58:34;;;;;;;;;;;;;;;2.04;59.28;101079.94;4425189;32;20007;-87
2022/01/18 05:01:00;;;;;;;;;;;;;;;2.05;59.29;101083.38;4425011;32;20013;-86
2022/01/18 05:03:26;;;;;;;;;;;;;;;2.11;59.29;101080.94;4426022;32;20071;-89
2022/01/18 05:05:55;;;;;;;;;;;;;;;2.00;59.29;101078.13;4427082;32;19973;-90
2022/01/18 05:08:20;;;;;;;;;;;;;;;1.95;59.28;101074.59;4428512;32;20035;-89
2022/01/18 05:10:51;;;;;;;;;;;;;;;1.99;59.29;101084.09;4428247;32;20037;-90
2022/01/18 05:21:27;;;;;;;;;;;;;;;2.12;59.29;101090.38;4442749;32;20058;-88
2022/01/18 05:23:54;;;;;;;;;;;;;;;2.07;59.29;101080.00;4440751;32;20019;-88
2022/01/18 05:26:19;;;;;;;;;;;;;;;1.89;59.28;101076.12;4440291;32;19984;-89
2022/01/18 05:28:44;;;;;;;;;;;;;;;2.10;59.29;101079.19;4454328;32;19996;-88
2022/01/18 05:31:10;;;;;;;;;;;;;;;1.91;59.27;101074.47;4453800;32;20707;-88
2022/01/18 05:33:35;;;;;;;;;;;;;;;1.93;59.29;101090.78;4439939;32;20034;-88
2022/01/18 05:36:00;;;;;;;;;;;;;;;1.97;59.28;101101.16;4427157;32;19993;-88
2022/01/18 05:38:26;;;;;;;;;;;;;;;2.01;59.29;101107.25;4427343;32;20006;-88
2022/01/18 05:40:51;;;;;;;;;;;;;;;1.86;59.28;101115.41;4439922;32;20369;-88
2022/01/18 05:43:17;;;;;;;;;;;;;;;1.94;59.28;101113.94;4440132;32;20046;-88
2022/01/18 05:45:42;;;;;;;;;;;;;;;1.85;59.28;101123.97;4427215;32;20286;-88
2022/01/18 05:48:07;;;;;;;;;;;;;;;1.92;59.29;101125.00;4426740;32;20045;-88
2022/01/18 05:50:35;;;;;;;;;;;;;;;1.98;59.28;101130.28;4426827;32;20064;-88
2022/01/18 05:53:00;;;;;;;;;;;;;;;2.03;59.28;101129.56;4427381;32;20019;-88
2022/01/18 05:55:25;;;;;;;;;;;;;;;2.08;59.29;101130.53;4439598;32;20593;-88
2022/01/18 05:57:51;;;;;;;;;;;;;;;1.96;59.28;101131.94;4426866;32;20247;-88
2022/01/18 06:00:22;;;;;;;;;;;;;;;1.88;59.28;101129.16;4439594;32;20000;-88
2022/01/18 06:02:59;;;;;;;;;;;;;;;1.75;59.27;101132.25;4440599;32;19993;-87
2022/01/18 06:08:09;;;;;;;;;;;;;;;1.96;59.28;101137.09;4442149;32;20090;-88
2022/01/18 06:10:34;;;;;;;;;;;;;;;2.05;59.29;101137.28;4427010;32;20316;-87
2022/01/18 06:13:03;;;;;;;;;;;;;;;2.10;59.29;101151.13;4439820;32;20015;-88
2022/01/18 06:15:31;;;;;;;;;;;;;;;2.02;59.28;101148.38;4453720;32;19995;-87
2022/01/18 06:17:57;;;;;;;;;;;;;;;1.98;59.29;101146.56;4425576;32;20637;-87
2022/01/18 06:20:22;;;;;;;;;;;;;;;2.03;59.29;101150.09;4439236;32;20015;-87
2022/01/18 06:22:51;;;;;;;;;;;;;;;2.10;59.29;101151.13;4439131;32;20001;-87
2022/01/18 06:25:16;;;;;;;;;;;;;;;1.99;59.29;101145.72;4439632;32;19981;-87
2022/01/18 06:27:41;;;;;;;;;;;;;;;1.85;59.28;101149.63;4438930;32;20015;-86
2022/01/18 06:30:09;;;;;;;;;;;;;;;1.82;59.27;101144.41;4453343;32;19989;-86
2022/01/18 06:32:35;;;;;;;;;;;;;;;1.88;59.28;101147.12;4453360;32;20011;-87
2022/01/18 06:35:00;;;;;;;;;;;;;;;1.87;59.28;101147.97;4439004;32;20311;-87
2022/01/18 06:37:25;;;;;;;;;;;;;;;1.89;59.28;101138.59;4438834;32;20035;-88
2022/01/18 06:39:51;;;;;;;;;;;;;;;1.90;59.27;101131.81;4439025;32;20008;-88
2022/01/18 06:42:16;;;;;;;;;;;;;;;1.78;59.28;101137.47;4439230;32;20258;-87
2022/01/18 06:44:41;;;;;;;;;;;;;;;1.63;59.26;101147.31;4439500;32;20030;-87
2022/01/18 06:47:06;;;;;;;;;;;;;;;1.67;59.27;101157.75;4426419;32;19980;-87
2022/01/18 06:49:32;;;;;;;;;;;;;;;1.56;59.27;101171.09;4439121;32;20005;-87
2022/01/18 06:51:57;;;;;;;;;;;;;;;1.81;59.28;101169.22;4453729;32;19997;-87
2022/01/18 06:54:22;;;;;;;;;;;;;;;1.96;59.28;101170.47;4426628;32;20341;-88
2022/01/18 06:56:49;;;;;;;;;;;;;;;2.00;59.29;101162.87;4426637;32;19988;-87
2022/01/18 06:59:15;;;;;;;;;;;;;;;2.12;59.29;101164.84;4439620;32;20626;-87
2022/01/18 07:01:40;;;;;;;;;;;;;;;1.98;59.29;101171.38;4439320;32;19988;-88
2022/01/18 07:04:05;;;;;;;;;;;;;;;1.93;59.29;101184.09;4439335;32;20076;-88
2022/01/18 07:06:31;;;;;;;;;;;;;;;2.11;59.29;101174.25;4426370;32;19985;-87
2022/01/18 07:08:56;;;;;;;;;;;;;;;2.14;59.30;101169.22;4439189;32;20379;-88
2022/01/18 07:11:22;;;;;;;;;;;;;;;2.11;59.29;101169.13;4426283;32;20000;-88
2022/01/18 07:13:47;;;;;;;;;;;;;;;2.06;59.29;101172.41;4439217;32;20031;-88
2022/01/18 07:16:12;;;;;;;;;;;;;;;2.17;59.30;101171.00;4438950;32;19997;-87
2022/01/18 07:18:37;;;;;;;;;;;;;;;2.40;59.30;101184.41;4439147;32;20318;-88
2022/01/18 07:21:03;;;;;;;;;;;;;;;2.14;59.30;101169.22;4439166;32;20005;-87
2022/01/18 07:23:28;;;;;;;;;;;;;;;2.32;59.31;101166.22;4439036;32;20026;-88
2022/01/18 07:25:53;;;;;;;;;;;;;;;2.18;59.30;101174.44;4453312;32;20353;-88
2022/01/18 07:28:18;;;;;;;;;;;;;;;2.44;59.32;101170.78;4438557;32;20043;-88
2022/01/18 07:30:44;;;;;;;;;;;;;;;2.32;59.31;101171.34;4452572;32;20000;-88
2022/01/18 07:33:12;;;;;;;;;;;;;;;2.23;59.30;101165.13;4439164;32;19985;-87
2022/01/18 07:35:37;;;;;;;;;;;;;;;2.08;59.29;101168.19;4453232;32;19973;-88
2022/01/18 07:38:02;;;;;;;;;;;;;;;2.37;59.31;101158.66;4439120;32;20052;-88
2022/01/18 07:40:28;;;;;;;;;;;;;;;2.40;59.31;101153.56;4439066;32;20013;-88
2022/01/18 07:42:54;;;;;;;;;;;;;;;2.33;59.31;101159.37;4439063;32;20254;-87
2022/01/18 07:45:19;;;;;;;;;;;;;;;2.44;59.32;101163.94;4453194;32;20023;-87
2022/01/18 07:47:44;;;;;;;;;;;;;;;2.64;59.33;101164.41;4453103;32;20299;-86
2022/01/18 07:50:09;;;;;;;;;;;;;;;2.64;59.33;101174.69;4438665;32;20053;-87
2022/01/18 07:52:36;;;;;;;;;;;;;;;2.60;59.32;101182.28;4438696;32;19973;-87
2022/01/18 07:55:02;;;;;;;;;;;;;;;2.63;59.32;101184.94;4426019;32;19991;-87
2022/01/18 07:57:27;;;;;;;;;;;;;;;2.72;59.33;101196.31;4438644;32;20049;-88
2022/01/18 07:59:52;;;;;;;;;;;;;;;2.80;59.33;101205.88;4425776;32;20004;-87
2022/01/18 08:02:18;;;;;;;;;;;;;;;2.90;59.34;101207.84;4438620;32;20021;-87
2022/01/18 08:04:43;;;;;;;;;;;;;;;2.94;59.34;101212.22;4452638;32;20538;-88
2022/01/18 08:07:08;;;;;;;;;;;;;;;3.06;59.34;101213.34;4452669;32;19977;-87
2022/01/18 08:09:33;;;;;;;;;;;;;;;3.11;59.35;101210.88;4438570;32;20004;-86
2022/01/18 08:11:59;;;;;;;;;;;;;;;3.03;59.35;101210.69;4452724;32;20333;-86
2022/01/18 08:14:26;;;;;;;;;;;;;;;3.10;59.35;101198.88;4438563;32;20345;-88
2022/01/18 08:17:01;;;;;;;;;;;;;;;3.11;59.35;101221.19;4439010;32;19981;-88
2022/01/18 08:19:29;;;;;;;;;;;;;;;3.30;59.36;101228.44;4426531;32;20419;-87
2022/01/18 08:21:55;;;;;;;;;;;;;;;3.46;59.36;101233.91;4438399;32;19973;-88
2022/01/18 08:24:20;;;;;;;;;;;;;;;3.32;59.37;101239.66;4438432;32;20012;-87
2022/01/18 08:26:45;;;;;;;;;;;;;;;3.44;59.37;101254.47;4425745;32;20020;-87
2022/01/18 08:29:12;;;;;;;;;;;;;;;3.51;59.37;101256.31;4438205;32;20015;-88
2022/01/18 08:31:37;;;;;;;;;;;;;;;3.29;59.35;101270.44;4438589;32;19978;-87
2022/01/18 08:34:03;;;;;;;;;;;;;;;3.33;59.37;101277.41;4452517;32;19984;-88
2022/01/18 08:36:28;;;;;;;;;;;;;;;3.36;59.36;101279.19;4438156;32;20046;-87
2022/01/18 08:38:53;;;;;;;;;;;;;;;3.52;59.37;101268.34;4424840;32;20301;-88
2022/01/18 08:41:19;;;;;;;;;;;;;;;3.77;59.39;101269.72;4426444;32;19991;-88
2022/01/18 08:43:44;;;;;;;;;;;;;;;3.91;59.40;101270.87;4440332;32;20376;-88
2022/01/18 08:46:10;;;;;;;;;;;;;;;3.77;59.39;101285.19;4454442;32;20230;-87
2022/01/18 08:48:36;;;;;;;;;;;;;;;3.77;59.39;101279.16;4454403;32;20277;-87
2022/01/18 08:51:01;;;;;;;;;;;;;;;3.82;59.39;101285.31;4440156;32;19989;-87
2022/01/18 08:53:27;;;;;;;;;;;;;;;4.04;59.40;101291.75;4440268;32;19993;-88
2022/01/18 08:55:53;;;;;;;;;;;;;;;4.07;59.41;101273.75;4440305;32;19988;-89
2022/01/18 08:58:18;;;;;;;;;;;;;;;3.84;59.39;101288.78;4427453;32;19996;-86
2022/01/18 09:00:43;;;;;;;;;;;;;;;3.80;59.39;101299.84;4454541;32;20012;-89
2022/01/18 09:03:09;;;;;;;;;;;;;;;3.67;59.37;101304.75;4427163;32;19996;-87
2022/01/18 09:05:36;;;;;;;;;;;;;;;3.89;59.39;101287.16;4440242;32;19981;-87
2022/01/18 09:08:05;;;;;;;;;;;;;;;3.89;59.39;101306.03;4440527;32;19980;-87
2022/01/18 09:10:30;;;;;;;;;;;;;;;4.10;59.41;101305.59;4454474;32;19988;-88
2022/01/18 09:12:56;;;;;;;;;;;;;;;4.33;59.42;101306.03;4427072;32;20017;-88
2022/01/18 09:15:21;;;;;;;;;;;;;;;4.22;59.41;101307.53;4440133;32;20001;-87
2022/01/18 09:17:46;;;;;;;;;;;;;;;4.14;59.41;101309.97;4454108;32;19996;-88
2022/01/18 09:20:12;;;;;;;;;;;;;;;4.30;59.42;101305.97;4440108;32;20368;-88
2022/01/18 09:22:38;;;;;;;;;;;;;;;4.39;59.42;101311.28;4439936;32;20015;-87
2022/01/18 09:25:04;;;;;;;;;;;;;;;4.30;59.42;101314.59;4440108;32;20000;-88
2022/01/18 09:27:29;;;;;;;;;;;;;;;4.08;59.40;101324.44;4454183;32;20278;-88
2022/01/18 09:29:55;;;;;;;;;;;;;;;4.15;59.41;101344.34;4440005;32;19976;-88
2022/01/18 09:32:21;;;;;;;;;;;;;;;3.97;59.39;101343.13;4439864;32;20368;-88
2022/01/18 09:34:46;;;;;;;;;;;;;;;4.17;59.41;101337.50;4439966;32;20020;-87
2022/01/18 09:37:11;;;;;;;;;;;;;;;4.35;59.43;101335.28;4426857;32;20052;-88
2022/01/18 09:39:38;;;;;;;;;;;;;;;4.59;59.43;101322.81;4426849;32;20357;-88
2022/01/18 09:42:03;;;;;;;;;;;;;;;4.58;59.44;101333.13;4440029;32;19977;-88
2022/01/18 09:44:29;;;;;;;;;;;;;;;4.76;59.45;101324.84;4439977;32;20022;-89
2022/01/18 09:46:55;;;;;;;;;;;;;;;4.29;59.42;101333.47;4440009;32;20050;-90
2022/01/18 09:49:20;;;;;;;;;;;;;;;4.26;59.41;101348.00;4426961;32;19974;-87
2022/01/18 09:51:45;;;;;;;;;;;;;;;4.36;59.42;101334.44;4453441;32;20016;-86
2022/01/18 09:54:10;;;;;;;;;;;;;;;4.40;59.42;101330.19;4439499;32;20018;-88
2022/01/18 09:56:36;;;;;;;;;;;;;;;4.60;59.44;101311.66;4439671;32;20048;-88
2022/01/18 09:59:01;;;;;;;;;;;;;;;4.73;59.45;101317.03;4454029;32;20270;-87
2022/01/18 10:01:28;;;;;;;;;;;;;;;4.68;59.44;101324.69;4439632;32;19973;-88
2022/01/18 10:03:56;;;;;;;;;;;;;;;4.57;59.43;101324.50;4439924;32;19977;-88
2022/01/18 10:06:22;;;;;;;;;;;;;;;4.52;59.43;101307.22;4439836;32;20350;-86
2022/01/18 10:08:48;;;;;;;;;;;;;;;4.59;59.43;101320.25;4439461;32;19984;-87
2022/01/18 10:11:16;;;;;;;;;;;;;;;4.48;59.42;101315.72;4439692;32;20306;-87
2022/01/18 10:13:41;;;;;;;;;;;;;;;4.36;59.43;101318.97;4439818;32;20012;-87
2022/01/18 10:16:13;;;;;;;;;;;;;;;4.39;59.42;101313.00;4453871;32;20342;-86
2022/01/18 10:18:48;;;;;;;;;;;;;;;4.31;59.42;101324.06;4439655;32;20045;-89
2022/01/18 10:21:15;;;;;;;;;;;;;;;4.36;59.43;101321.56;4439511;32;20047;-88
2022/01/18 10:23:48;;;;;;;;;;;;;;;4.48;59.43;101320.88;4439472;32;19989;-88
2022/01/18 10:26:20;;;;;;;;;;;;;;;4.75;59.44;101325.69;4427427;32;20001;-86
2022/01/18 10:28:45;;;;;;;;;;;;;;;4.73;59.44;101320.50;4453808;32;19965;-87
2022/01/18 10:31:55;;;;;;;;;;;;;;;4.77;59.44;101324.87;4439461;32;19999;-87
2022/01/18 10:34:41;;;;;;;;;;;;;;;4.78;59.44;101325.72;4424480;32;19978;-87
2022/01/18 10:37:09;;;;;;;;;;;;;;;4.51;59.43;101320.97;4453655;32;19989;-87
2022/01/18 10:39:35;;;;;;;;;;;;;;;4.35;59.43;101319.81;4453796;32;20472;-87
2022/01/18 10:42:02;;;;;;;;;;;;;;;4.75;59.45;101310.22;4439635;32;20408;-87
2022/01/18 10:44:29;;;;;;;;;;;;;;;5.08;59.46;101304.69;4439812;32;20001;-87
2022/01/18 10:46:55;;;;;;;;;;;;;;;4.90;59.45;101310.44;4439592;32;20015;-87
2022/01/18 10:49:30;;;;;;;;;;;;;;;4.75;59.44;101310.22;4439417;32;19981;-88
2022/01/18 10:52:02;;;;;;;;;;;;;;;4.88;59.46;101312.13;4439207;32;19977;-87
2022/01/18 10:54:38;;;;;;;;;;;;;;;4.85;59.44;101320.69;4426924;32;19992;-88
2022/01/18 10:57:04;;;;;;;;;;;;;;;4.78;59.44;101315.41;4426502;32;19988;-86
2022/01/18 10:59:29;;;;;;;;;;;;;;;4.94;59.46;101314.78;4439229;32;20019;-87
2022/01/18 11:02:13;;;;;;;;;;;;;;;4.88;59.46;101322.44;4439163;32;20019;-87
2022/01/18 11:04:38;;;;;;;;;;;;;;;4.83;59.44;101306.91;4439586;32;20011;-87
2022/01/18 11:07:04;;;;;;;;;;;;;;;4.80;59.45;101319.75;4453596;32;20334;-87
2022/01/18 11:09:29;;;;;;;;;;;;;;;5.03;59.46;101303.78;4453554;32;19981;-88
2022/01/18 11:11:54;;;;;;;;;;;;;;;5.15;59.46;101304.81;4426270;32;19973;-88
2022/01/18 11:14:21;;;;;;;;;;;;;;;5.03;59.46;101308.94;4439230;32;20000;-87
2022/01/18 11:16:47;;;;;;;;;;;;;;;5.14;59.47;101322.84;4426532;32;20001;-87
2022/01/18 11:19:28;;;;;;;;;;;;;;;5.06;59.46;101319.28;4453385;32;20333;-88
2022/01/18 11:21:54;;;;;;;;;;;;;;;4.97;59.46;101332.94;4441026;32;20878;-88
2022/01/18 11:24:19;;;;;;;;;;;;;;;4.79;59.45;101343.81;4439372;32;20023;-86
2022/01/18 11:26:45;;;;;;;;;;;;;;;4.80;59.45;101324.91;4439358;32;20001;-88
2022/01/18 11:29:11;;;;;;;;;;;;;;;5.01;59.46;101323.53;4439281;32;19969;-88
2022/01/18 11:31:36;;;;;;;;;;;;;;;4.94;59.46;101333.72;4426284;32;20008;-87
2022/01/18 11:34:01;;;;;;;;;;;;;;;5.03;59.46;101347.62;4426272;32;19989;-86
2022/01/18 11:36:28;;;;;;;;;;;;;;;5.02;59.46;101333.00;4437686;32;19985;-88
2022/01/18 11:38:54;;;;;;;;;;;;;;;5.33;59.48;101331.75;4438535;32;19981;-88
2022/01/18 11:41:22;;;;;;;;;;;;;;;5.08;59.45;101326.22;4425671;32;19977;-87
2022/01/18 11:43:48;;;;;;;;;;;;;;;4.91;59.45;101333.69;4453274;32;19977;-89
2022/01/18 11:46:19;;;;;;;;;;;;;;;5.00;59.46;101348.47;4426060;32;20011;-87
2022/01/18 11:48:44;;;;;;;;;;;;;;;5.06;59.46;101345.97;4437761;32;20273;-88
2022/01/18 11:51:16;;;;;;;;;;;;;;;5.12;59.47;101352.94;4438696;32;20003;-87
2022/01/18 11:53:46;;;;;;;;;;;;;;;5.31;59.47;101351.50;4438745;32;20049;-88
2022/01/18 11:56:15;;;;;;;;;;;;;;;5.35;59.47;101343.81;4437708;32;19993;-86
2022/01/18 11:58:42;;;;;;;;;;;;;;;5.11;59.46;101346.91;4452737;32;20704;-89
2022/01/18 12:01:09;;;;;;;;;;;;;;;4.96;59.45;101346.66;4438774;32;19973;-88
2022/01/18 12:03:44;;;;;;;;;;;;;;;4.87;59.46;101349.97;4438957;32;20302;-88
2022/01/18 12:06:09;;;;;;;;;;;;;;;4.73;59.44;101333.41;4452546;32;19985;-87
2022/01/18 12:08:35;;;;;;;;;;;;;;;5.04;59.46;101339.91;4425947;32;20015;-88
2022/01/18 12:11:01;;;;;;;;;;;;;;;5.03;59.46;101337.31;4438366;32;20011;-86
2022/01/18 12:13:34;;;;;;;;;;;;;;;5.05;59.46;101323.59;4452893;32;20599;-88
2022/01/18 12:16:00;;;;;;;;;;;;;;;5.08;59.46;101317.59;4439460;32;19997;-87
2022/01/18 12:18:30;;;;;;;;;;;;;;;5.03;59.46;101333.03;4427551;32;19981;-88
2022/01/18 12:20:56;;;;;;;;;;;;;;;5.10;59.47;101344.31;4454767;32;20042;-85
2022/01/18 12:23:22;;;;;;;;;;;;;;;4.96;59.46;101328.59;4440579;32;19997;-87
2022/01/18 12:26:03;;;;;;;;;;;;;;;5.21;59.46;101328.16;4454745;32;20013;-89
2022/01/18 12:31:51;;;;;;;;;;;;;;;5.30;59.47;101321.37;4445576;32;19999;-88
2022/01/18 12:34:32;;;;;;;;;;;;;;;5.24;59.46;101335.06;4454653;32;20034;-88
2022/01/18 12:36:57;;;;;;;;;;;;;;;5.12;59.47;101345.19;4454522;32;20308;-88
2022/01/18 12:39:22;;;;;;;;;;;;;;;4.88;59.45;101336.22;4440177;32;20017;-87
2022/01/18 12:41:52;;;;;;;;;;;;;;;5.14;59.46;101333.19;4440379;32;20014;-89
2022/01/18 12:44:20;;;;;;;;;;;;;;;5.06;59.46;101345.09;4454588;32;19997;-88
2022/01/18 12:46:56;;;;;;;;;;;;;;;5.04;59.46;101344.22;4440800;32;20035;-87
2022/01/18 12:49:21;;;;;;;;;;;;;;;5.18;59.47;101345.28;4440158;32;19969;-87
2022/01/18 12:51:53;;;;;;;;;;;;;;;5.09;59.47;101351.19;4440302;32;19996;-90
2022/01/18 12:54:18;;;;;;;;;;;;;;;4.81;59.45;101364.47;4440461;32;20005;-87
2022/01/18 12:56:43;;;;;;;;;;;;;;;4.98;59.45;101347.56;4440102;32;19997;-89
2022/01/18 12:59:08;;;;;;;;;;;;;;;4.90;59.45;101356.88;4426944;32;19996;-87
2022/01/18 13:01:34;;;;;;;;;;;;;;;5.08;59.46;101356.31;4453826;32;20353;-89
2022/01/18 13:03:59;;;;;;;;;;;;;;;5.12;59.47;101348.63;4427365;32;20013;-88
2022/01/18 13:06:25;;;;;;;;;;;;;;;5.00;59.45;101369.09;4426300;32;20590;-86
2022/01/18 13:08:52;;;;;;;;;;;;;;;5.01;59.45;101346.75;4454234;32;19973;-88
2022/01/18 13:11:21;;;;;;;;;;;;;;;4.96;59.45;101356.97;4440034;32;19977;-88
2022/01/18 13:14:00;;;;;;;;;;;;;;;5.07;59.46;101352.88;4440034;32;20452;-89
2022/01/18 13:24:50;;;;;;;;;;;;;;;5.42;59.48;101365.44;4442036;32;19996;-88
2022/01/18 13:27:25;;;;;;;;;;;;;;;5.31;59.48;101360.13;4442846;32;19993;-88
2022/01/18 13:29:53;;;;;;;;;;;;;;;5.22;59.46;101362.59;4441239;32;19990;-89
2022/01/18 13:32:21;;;;;;;;;;;;;;;5.04;59.46;101373.47;4440259;32;19981;-88
2022/01/18 13:34:57;;;;;;;;;;;;;;;4.98;59.45;101369.94;4454161;32;19977;-89
2022/01/18 13:37:27;;;;;;;;;;;;;;;5.16;59.47;101371.06;4440481;32;20057;-88
2022/01/18 13:39:53;;;;;;;;;;;;;;;4.97;59.45;101376.81;4440073;32;20003;-89
2022/01/18 13:42:19;;;;;;;;;;;;;;;5.07;59.46;101363.19;4427297;32;20011;-88
2022/01/18 13:45:03;;;;;;;;;;;;;;;5.05;59.46;101364.00;4427011;32;19997;-89
2022/01/18 13:47:35;;;;;;;;;;;;;;;5.08;59.45;101364.94;4454019;32;20040;-87
2022/01/18 13:50:01;;;;;;;;;;;;;;;5.33;59.48;101370.47;4439181;32;20040;-88
2022/01/18 13:52:28;;;;;;;;;;;;;;;5.08;59.46;101367.50;4426450;32;20013;-88
2022/01/18 13:54:54;;;;;;;;;;;;;;;5.31;59.48;101365.28;4439436;32;20035;-88
2022/01/18 13:57:19;;;;;;;;;;;;;;;5.38;59.47;101369.69;4426544;32;19997;-89
2022/01/18 13:59:45;;;;;;;;;;;;;;;5.32;59.48;101367.03;4426657;32;20028;-88
2022/01/18 14:02:11;;;;;;;;;;;;;;;5.29;59.47;101373.84;4439279;32;20022;-88
2022/01/18 14:04:36;;;;;;;;;;;;;;;5.29;59.47;101381.59;4453567;32;19973;-87